sensor_id;sensor_type;location;lat;lon;timestamp;P1;durP1;ratioP1;P2;durP2;ratioP2
70073;SDS011;57445;51.058;3.698;2022-11-25T00:01:24;9.40;;;2.67;;
70073;SDS011;57445;51.058;3.698;2022-11-25T00:03:54;8.65;;;1.98;;
70073;SDS011;57445;51.058;3.698;2022-11-25T00:06:25;11.50;;;3.25;;
70073;SDS011;57445;51.058;3.698;2022-11-25T00:08:54;8.45;;;2.28;;
70073;SDS011;57445;51.058;3.698;2022-11-25T00:11:24;7.20;;;1.98;;
70073;SDS011;57445;51.058;3.698;2022-11-25T00:13:52;5.82;;;1.83;;
70073;SDS011;57445;51.058;3.698;2022-11-25T00:16:21;9.27;;;1.98;;
70073;SDS011;57445;51.058;3.698;2022-11-25T00:18:51;8.48;;;2.40;;
70073;SDS011;57445;51.058;3.698;2022-11-25T00:21:22;7.00;;;1.80;;
70073;SDS011;57445;51.058;3.698;2022-11-25T00:23:51;10.63;;;2.00;;
70073;SDS011;57445;51.058;3.698;2022-11-25T00:26:20;9.68;;;1.83;;
70073;SDS011;57445;51.058;3.698;2022-11-25T00:28:50;9.35;;;2.05;;
70073;SDS011;57445;51.058;3.698;2022-11-25T00:31:19;7.15;;;2.25;;
70073;SDS011;57445;51.058;3.698;2022-11-25T00:33:49;8.18;;;1.88;;
70073;SDS011;57445;51.058;3.698;2022-11-25T00:36:18;9.00;;;1.60;;
70073;SDS011;57445;51.058;3.698;2022-11-25T00:38:47;6.78;;;2.05;;
70073;SDS011;57445;51.058;3.698;2022-11-25T00:41:19;5.28;;;1.50;;
70073;SDS011;57445;51.058;3.698;2022-11-25T00:44:11;4.45;;;1.25;;
70073;SDS011;57445;51.058;3.698;2022-11-25T00:47:02;5.43;;;1.30;;
70073;SDS011;57445;51.058;3.698;2022-11-25T00:49:31;5.65;;;1.60;;
70073;SDS011;57445;51.058;3.698;2022-11-25T00:51:59;5.10;;;1.48;;
70073;SDS011;57445;51.058;3.698;2022-11-25T00:54:26;4.18;;;1.38;;
70073;SDS011;57445;51.058;3.698;2022-11-25T00:56:56;6.65;;;1.27;;
70073;SDS011;57445;51.058;3.698;2022-11-25T00:59:25;3.05;;;1.08;;
70073;SDS011;57445;51.058;3.698;2022-11-25T01:01:53;4.03;;;1.15;;
70073;SDS011;57445;51.058;3.698;2022-11-25T01:04:21;3.38;;;1.20;;
70073;SDS011;57445;51.058;3.698;2022-11-25T01:06:50;2.50;;;0.80;;
70073;SDS011;57445;51.058;3.698;2022-11-25T01:09:18;4.10;;;1.17;;
70073;SDS011;57445;51.058;3.698;2022-11-25T01:11:48;3.08;;;0.98;;
70073;SDS011;57445;51.058;3.698;2022-11-25T01:14:16;4.43;;;0.85;;
70073;SDS011;57445;51.058;3.698;2022-11-25T01:16:50;5.07;;;1.02;;
70073;SDS011;57445;51.058;3.698;2022-11-25T01:19:22;4.43;;;1.00;;
70073;SDS011;57445;51.058;3.698;2022-11-25T01:21:55;3.88;;;0.95;;
70073;SDS011;57445;51.058;3.698;2022-11-25T01:24:27;5.45;;;1.02;;
70073;SDS011;57445;51.058;3.698;2022-11-25T01:26:55;2.58;;;1.02;;
70073;SDS011;57445;51.058;3.698;2022-11-25T01:29:23;2.85;;;0.90;;
70073;SDS011;57445;51.058;3.698;2022-11-25T01:31:54;4.25;;;1.00;;
70073;SDS011;57445;51.058;3.698;2022-11-25T01:34:22;3.22;;;0.90;;
70073;SDS011;57445;51.058;3.698;2022-11-25T01:36:52;3.83;;;0.80;;
70073;SDS011;57445;51.058;3.698;2022-11-25T01:39:20;4.40;;;0.93;;
70073;SDS011;57445;51.058;3.698;2022-11-25T01:41:54;2.63;;;0.88;;
70073;SDS011;57445;51.058;3.698;2022-11-25T01:44:22;3.65;;;1.20;;
70073;SDS011;57445;51.058;3.698;2022-11-25T01:46:55;2.85;;;1.00;;
70073;SDS011;57445;51.058;3.698;2022-11-25T01:49:34;2.60;;;0.95;;
70073;SDS011;57445;51.058;3.698;2022-11-25T01:52:12;4.50;;;1.20;;
70073;SDS011;57445;51.058;3.698;2022-11-25T01:54:46;3.00;;;0.88;;
70073;SDS011;57445;51.058;3.698;2022-11-25T01:57:23;3.47;;;0.95;;
70073;SDS011;57445;51.058;3.698;2022-11-25T01:59:56;4.63;;;1.25;;
70073;SDS011;57445;51.058;3.698;2022-11-25T02:02:31;4.65;;;0.75;;
70073;SDS011;57445;51.058;3.698;2022-11-25T02:04:59;5.82;;;1.00;;
70073;SDS011;57445;51.058;3.698;2022-11-25T02:07:30;2.30;;;0.80;;
70073;SDS011;57445;51.058;3.698;2022-11-25T02:10:06;4.65;;;1.15;;
70073;SDS011;57445;51.058;3.698;2022-11-25T02:12:37;3.22;;;0.73;;
70073;SDS011;57445;51.058;3.698;2022-11-25T02:15:12;2.83;;;0.98;;
70073;SDS011;57445;51.058;3.698;2022-11-25T02:17:42;6.43;;;1.15;;
70073;SDS011;57445;51.058;3.698;2022-11-25T02:20:15;7.35;;;1.40;;
70073;SDS011;57445;51.058;3.698;2022-11-25T02:22:51;5.32;;;1.30;;
70073;SDS011;57445;51.058;3.698;2022-11-25T02:25:31;4.63;;;1.15;;
70073;SDS011;57445;51.058;3.698;2022-11-25T02:28:01;4.38;;;1.00;;
70073;SDS011;57445;51.058;3.698;2022-11-25T02:30:31;4.22;;;1.25;;
70073;SDS011;57445;51.058;3.698;2022-11-25T02:32:59;3.95;;;1.38;;
70073;SDS011;57445;51.058;3.698;2022-11-25T02:35:29;5.68;;;1.50;;
70073;SDS011;57445;51.058;3.698;2022-11-25T02:38:00;6.95;;;2.00;;
70073;SDS011;57445;51.058;3.698;2022-11-25T02:40:36;7.03;;;1.80;;
70073;SDS011;57445;51.058;3.698;2022-11-25T02:43:14;9.70;;;2.22;;
70073;SDS011;57445;51.058;3.698;2022-11-25T02:45:54;7.57;;;2.53;;
70073;SDS011;57445;51.058;3.698;2022-11-25T02:48:24;11.20;;;3.25;;
70073;SDS011;57445;51.058;3.698;2022-11-25T02:50:53;10.02;;;2.78;;
70073;SDS011;57445;51.058;3.698;2022-11-25T02:53:21;7.97;;;2.78;;
70073;SDS011;57445;51.058;3.698;2022-11-25T02:55:50;11.65;;;3.63;;
70073;SDS011;57445;51.058;3.698;2022-11-25T02:58:23;11.70;;;3.45;;
70073;SDS011;57445;51.058;3.698;2022-11-25T03:00:50;12.75;;;3.78;;
70073;SDS011;57445;51.058;3.698;2022-11-25T03:03:18;14.18;;;3.83;;
70073;SDS011;57445;51.058;3.698;2022-11-25T03:05:46;13.52;;;4.03;;
70073;SDS011;57445;51.058;3.698;2022-11-25T03:08:13;13.10;;;3.90;;
70073;SDS011;57445;51.058;3.698;2022-11-25T03:10:41;12.45;;;3.60;;
70073;SDS011;57445;51.058;3.698;2022-11-25T03:13:11;12.55;;;4.43;;
70073;SDS011;57445;51.058;3.698;2022-11-25T03:15:39;10.43;;;3.65;;
70073;SDS011;57445;51.058;3.698;2022-11-25T03:18:07;9.88;;;3.25;;
70073;SDS011;57445;51.058;3.698;2022-11-25T03:20:35;13.32;;;3.25;;
70073;SDS011;57445;51.058;3.698;2022-11-25T03:23:04;12.23;;;3.30;;
70073;SDS011;57445;51.058;3.698;2022-11-25T03:25:33;13.32;;;3.58;;
70073;SDS011;57445;51.058;3.698;2022-11-25T03:28:02;13.13;;;2.95;;
70073;SDS011;57445;51.058;3.698;2022-11-25T03:30:31;11.07;;;2.80;;
70073;SDS011;57445;51.058;3.698;2022-11-25T03:32:59;9.93;;;2.63;;
70073;SDS011;57445;51.058;3.698;2022-11-25T03:35:27;8.07;;;2.70;;
70073;SDS011;57445;51.058;3.698;2022-11-25T03:37:54;10.23;;;2.55;;
70073;SDS011;57445;51.058;3.698;2022-11-25T03:40:22;10.25;;;2.63;;
70073;SDS011;57445;51.058;3.698;2022-11-25T03:42:50;11.43;;;2.85;;
70073;SDS011;57445;51.058;3.698;2022-11-25T03:45:18;10.98;;;2.30;;
70073;SDS011;57445;51.058;3.698;2022-11-25T03:47:47;8.38;;;2.47;;
70073;SDS011;57445;51.058;3.698;2022-11-25T03:50:19;8.27;;;2.30;;
70073;SDS011;57445;51.058;3.698;2022-11-25T03:52:46;8.13;;;2.20;;
70073;SDS011;57445;51.058;3.698;2022-11-25T03:55:19;8.00;;;2.15;;
70073;SDS011;57445;51.058;3.698;2022-11-25T03:57:47;10.77;;;2.40;;
70073;SDS011;57445;51.058;3.698;2022-11-25T04:00:14;13.02;;;2.40;;
70073;SDS011;57445;51.058;3.698;2022-11-25T04:02:42;8.35;;;1.77;;
70073;SDS011;57445;51.058;3.698;2022-11-25T04:05:11;6.32;;;1.88;;
70073;SDS011;57445;51.058;3.698;2022-11-25T04:07:39;10.10;;;2.25;;
70073;SDS011;57445;51.058;3.698;2022-11-25T04:10:07;9.95;;;2.33;;
70073;SDS011;57445;51.058;3.698;2022-11-25T04:12:40;5.10;;;1.65;;
70073;SDS011;57445;51.058;3.698;2022-11-25T04:15:12;8.30;;;2.30;;
70073;SDS011;57445;51.058;3.698;2022-11-25T04:17:40;6.13;;;1.88;;
70073;SDS011;57445;51.058;3.698;2022-11-25T04:20:09;7.63;;;2.22;;
70073;SDS011;57445;51.058;3.698;2022-11-25T04:22:39;7.35;;;2.22;;
70073;SDS011;57445;51.058;3.698;2022-11-25T04:25:08;10.68;;;2.35;;
70073;SDS011;57445;51.058;3.698;2022-11-25T04:27:36;11.13;;;2.28;;
70073;SDS011;57445;51.058;3.698;2022-11-25T04:30:04;7.10;;;2.08;;
70073;SDS011;57445;51.058;3.698;2022-11-25T04:32:34;8.20;;;1.98;;
70073;SDS011;57445;51.058;3.698;2022-11-25T04:35:02;7.05;;;2.17;;
70073;SDS011;57445;51.058;3.698;2022-11-25T04:37:32;8.02;;;2.05;;
70073;SDS011;57445;51.058;3.698;2022-11-25T04:40:00;7.90;;;2.40;;
70073;SDS011;57445;51.058;3.698;2022-11-25T04:42:27;6.15;;;1.95;;
70073;SDS011;57445;51.058;3.698;2022-11-25T04:44:59;6.38;;;1.88;;
70073;SDS011;57445;51.058;3.698;2022-11-25T04:47:28;7.55;;;2.00;;
70073;SDS011;57445;51.058;3.698;2022-11-25T04:49:56;7.55;;;2.15;;
70073;SDS011;57445;51.058;3.698;2022-11-25T04:52:25;11.48;;;2.67;;
70073;SDS011;57445;51.058;3.698;2022-11-25T04:54:54;7.82;;;1.95;;
70073;SDS011;57445;51.058;3.698;2022-11-25T04:57:26;7.50;;;2.83;;
70073;SDS011;57445;51.058;3.698;2022-11-25T04:59:54;9.27;;;2.33;;
70073;SDS011;57445;51.058;3.698;2022-11-25T05:02:22;6.05;;;2.00;;
70073;SDS011;57445;51.058;3.698;2022-11-25T05:04:52;9.25;;;2.20;;
70073;SDS011;57445;51.058;3.698;2022-11-25T05:07:22;11.85;;;2.55;;
70073;SDS011;57445;51.058;3.698;2022-11-25T05:09:51;6.82;;;2.40;;
70073;SDS011;57445;51.058;3.698;2022-11-25T05:12:22;8.38;;;2.35;;
70073;SDS011;57445;51.058;3.698;2022-11-25T05:14:50;10.95;;;2.75;;
70073;SDS011;57445;51.058;3.698;2022-11-25T05:17:19;9.00;;;2.30;;
70073;SDS011;57445;51.058;3.698;2022-11-25T05:19:48;8.30;;;2.20;;
70073;SDS011;57445;51.058;3.698;2022-11-25T05:22:17;7.60;;;2.08;;
70073;SDS011;57445;51.058;3.698;2022-11-25T05:24:46;5.45;;;2.08;;
70073;SDS011;57445;51.058;3.698;2022-11-25T05:27:15;8.27;;;2.30;;
70073;SDS011;57445;51.058;3.698;2022-11-25T05:29:43;11.35;;;2.28;;
70073;SDS011;57445;51.058;3.698;2022-11-25T05:32:16;13.40;;;2.05;;
70073;SDS011;57445;51.058;3.698;2022-11-25T05:34:44;9.20;;;2.55;;
70073;SDS011;57445;51.058;3.698;2022-11-25T05:37:12;9.77;;;2.45;;
70073;SDS011;57445;51.058;3.698;2022-11-25T05:39:40;10.68;;;2.38;;
70073;SDS011;57445;51.058;3.698;2022-11-25T05:42:12;8.25;;;2.30;;
70073;SDS011;57445;51.058;3.698;2022-11-25T05:44:46;6.90;;;2.40;;
70073;SDS011;57445;51.058;3.698;2022-11-25T05:47:14;8.50;;;2.15;;
70073;SDS011;57445;51.058;3.698;2022-11-25T05:49:41;7.72;;;2.30;;
70073;SDS011;57445;51.058;3.698;2022-11-25T05:52:09;9.95;;;2.60;;
70073;SDS011;57445;51.058;3.698;2022-11-25T05:54:41;7.80;;;2.13;;
70073;SDS011;57445;51.058;3.698;2022-11-25T05:57:09;9.38;;;3.85;;
70073;SDS011;57445;51.058;3.698;2022-11-25T05:59:36;9.30;;;2.50;;
70073;SDS011;57445;51.058;3.698;2022-11-25T06:02:06;5.38;;;2.00;;
70073;SDS011;57445;51.058;3.698;2022-11-25T06:04:33;10.80;;;2.13;;
70073;SDS011;57445;51.058;3.698;2022-11-25T06:07:01;6.90;;;2.33;;
70073;SDS011;57445;51.058;3.698;2022-11-25T06:09:29;9.52;;;2.45;;
70073;SDS011;57445;51.058;3.698;2022-11-25T06:12:01;5.78;;;2.10;;
70073;SDS011;57445;51.058;3.698;2022-11-25T06:14:29;10.10;;;2.28;;
70073;SDS011;57445;51.058;3.698;2022-11-25T06:16:56;8.27;;;1.95;;
70073;SDS011;57445;51.058;3.698;2022-11-25T06:19:27;9.32;;;2.30;;
70073;SDS011;57445;51.058;3.698;2022-11-25T06:21:55;6.63;;;2.13;;
70073;SDS011;57445;51.058;3.698;2022-11-25T06:24:29;10.00;;;2.60;;
70073;SDS011;57445;51.058;3.698;2022-11-25T06:26:56;11.05;;;2.25;;
70073;SDS011;57445;51.058;3.698;2022-11-25T06:29:25;10.65;;;2.25;;
70073;SDS011;57445;51.058;3.698;2022-11-25T06:31:53;10.55;;;2.72;;
70073;SDS011;57445;51.058;3.698;2022-11-25T06:34:21;7.82;;;2.50;;
70073;SDS011;57445;51.058;3.698;2022-11-25T06:36:50;8.95;;;2.88;;
70073;SDS011;57445;51.058;3.698;2022-11-25T06:39:19;8.98;;;2.50;;
70073;SDS011;57445;51.058;3.698;2022-11-25T06:41:47;9.27;;;2.70;;
70073;SDS011;57445;51.058;3.698;2022-11-25T06:44:15;11.80;;;2.50;;
70073;SDS011;57445;51.058;3.698;2022-11-25T06:46:43;7.05;;;2.80;;
70073;SDS011;57445;51.058;3.698;2022-11-25T06:49:10;9.55;;;2.80;;
70073;SDS011;57445;51.058;3.698;2022-11-25T06:51:38;11.98;;;2.92;;
70073;SDS011;57445;51.058;3.698;2022-11-25T06:54:07;11.27;;;2.72;;
70073;SDS011;57445;51.058;3.698;2022-11-25T06:56:36;9.95;;;2.78;;
70073;SDS011;57445;51.058;3.698;2022-11-25T06:59:05;7.07;;;2.45;;
70073;SDS011;57445;51.058;3.698;2022-11-25T07:01:34;10.50;;;3.15;;
70073;SDS011;57445;51.058;3.698;2022-11-25T07:04:02;9.13;;;2.92;;
70073;SDS011;57445;51.058;3.698;2022-11-25T07:06:31;8.88;;;2.90;;
70073;SDS011;57445;51.058;3.698;2022-11-25T07:08:59;9.00;;;2.88;;
70073;SDS011;57445;51.058;3.698;2022-11-25T07:11:29;10.50;;;3.50;;
70073;SDS011;57445;51.058;3.698;2022-11-25T07:13:59;9.77;;;3.30;;
70073;SDS011;57445;51.058;3.698;2022-11-25T07:16:28;11.55;;;3.55;;
70073;SDS011;57445;51.058;3.698;2022-11-25T07:18:57;12.82;;;3.58;;
70073;SDS011;57445;51.058;3.698;2022-11-25T07:21:26;12.25;;;5.22;;
70073;SDS011;57445;51.058;3.698;2022-11-25T07:23:56;15.88;;;4.25;;
70073;SDS011;57445;51.058;3.698;2022-11-25T07:26:31;11.93;;;3.35;;
70073;SDS011;57445;51.058;3.698;2022-11-25T07:29:04;9.18;;;3.50;;
70073;SDS011;57445;51.058;3.698;2022-11-25T07:31:34;11.48;;;3.78;;
70073;SDS011;57445;51.058;3.698;2022-11-25T07:34:04;15.20;;;4.43;;
70073;SDS011;57445;51.058;3.698;2022-11-25T07:36:33;15.20;;;4.95;;
70073;SDS011;57445;51.058;3.698;2022-11-25T07:39:03;17.17;;;4.93;;
70073;SDS011;57445;51.058;3.698;2022-11-25T07:41:34;17.63;;;5.45;;
70073;SDS011;57445;51.058;3.698;2022-11-25T07:44:03;12.90;;;4.40;;
70073;SDS011;57445;51.058;3.698;2022-11-25T08:02:00;13.93;;;4.65;;
70073;SDS011;57445;51.058;3.698;2022-11-25T08:04:28;15.90;;;5.70;;
70073;SDS011;57445;51.058;3.698;2022-11-25T08:06:57;11.68;;;4.22;;
70073;SDS011;57445;51.058;3.698;2022-11-25T08:09:25;17.02;;;4.47;;
70073;SDS011;57445;51.058;3.698;2022-11-25T08:11:53;12.18;;;3.90;;
70073;SDS011;57445;51.058;3.698;2022-11-25T08:14:23;10.93;;;3.78;;
70073;SDS011;57445;51.058;3.698;2022-11-25T08:16:54;14.55;;;4.10;;
70073;SDS011;57445;51.058;3.698;2022-11-25T08:19:23;11.30;;;3.55;;
70073;SDS011;57445;51.058;3.698;2022-11-25T08:21:52;12.38;;;3.85;;
70073;SDS011;57445;51.058;3.698;2022-11-25T08:24:23;10.07;;;2.95;;
70073;SDS011;57445;51.058;3.698;2022-11-25T08:26:51;8.20;;;3.95;;
70073;SDS011;57445;51.058;3.698;2022-11-25T08:29:20;9.00;;;3.40;;
70073;SDS011;57445;51.058;3.698;2022-11-25T08:31:49;12.38;;;4.30;;
70073;SDS011;57445;51.058;3.698;2022-11-25T08:34:21;10.77;;;4.00;;
70073;SDS011;57445;51.058;3.698;2022-11-25T08:36:57;10.70;;;4.00;;
70073;SDS011;57445;51.058;3.698;2022-11-25T08:39:39;9.77;;;3.30;;
70073;SDS011;57445;51.058;3.698;2022-11-25T08:42:08;10.45;;;3.75;;
70073;SDS011;57445;51.058;3.698;2022-11-25T08:44:36;12.13;;;3.72;;
70073;SDS011;57445;51.058;3.698;2022-11-25T08:47:04;13.95;;;3.50;;
70073;SDS011;57445;51.058;3.698;2022-11-25T08:49:41;8.50;;;3.55;;
70073;SDS011;57445;51.058;3.698;2022-11-25T08:52:09;11.73;;;3.55;;
70073;SDS011;57445;51.058;3.698;2022-11-25T08:54:39;10.93;;;4.03;;
70073;SDS011;57445;51.058;3.698;2022-11-25T08:57:13;13.65;;;3.90;;
70073;SDS011;57445;51.058;3.698;2022-11-25T08:59:43;14.68;;;4.10;;
70073;SDS011;57445;51.058;3.698;2022-11-25T09:02:11;11.32;;;4.05;;
70073;SDS011;57445;51.058;3.698;2022-11-25T09:04:47;13.93;;;4.03;;
70073;SDS011;57445;51.058;3.698;2022-11-25T09:07:18;13.35;;;4.05;;
70073;SDS011;57445;51.058;3.698;2022-11-25T09:09:51;15.07;;;4.10;;
70073;SDS011;57445;51.058;3.698;2022-11-25T09:12:18;20.75;;;4.70;;
70073;SDS011;57445;51.058;3.698;2022-11-25T09:14:51;15.23;;;3.47;;
70073;SDS011;57445;51.058;3.698;2022-11-25T09:17:19;13.48;;;3.78;;
70073;SDS011;57445;51.058;3.698;2022-11-25T09:19:55;16.10;;;4.07;;
70073;SDS011;57445;51.058;3.698;2022-11-25T09:22:28;18.25;;;3.67;;
70073;SDS011;57445;51.058;3.698;2022-11-25T09:25:02;14.45;;;4.00;;
70073;SDS011;57445;51.058;3.698;2022-11-25T09:27:30;14.30;;;3.70;;
70073;SDS011;57445;51.058;3.698;2022-11-25T09:29:59;14.38;;;3.65;;
70073;SDS011;57445;51.058;3.698;2022-11-25T09:32:29;14.38;;;4.25;;
70073;SDS011;57445;51.058;3.698;2022-11-25T09:35:03;15.52;;;3.55;;
70073;SDS011;57445;51.058;3.698;2022-11-25T09:37:32;12.18;;;3.67;;
70073;SDS011;57445;51.058;3.698;2022-11-25T09:40:00;12.00;;;3.60;;
70073;SDS011;57445;51.058;3.698;2022-11-25T09:42:33;9.85;;;3.30;;
70073;SDS011;57445;51.058;3.698;2022-11-25T09:45:32;12.80;;;4.10;;
70073;SDS011;57445;51.058;3.698;2022-11-25T09:48:36;12.20;;;3.95;;
70073;SDS011;57445;51.058;3.698;2022-11-25T09:51:21;11.68;;;3.05;;
70073;SDS011;57445;51.058;3.698;2022-11-25T09:53:51;10.90;;;3.90;;
70073;SDS011;57445;51.058;3.698;2022-11-25T09:56:27;10.10;;;3.17;;
70073;SDS011;57445;51.058;3.698;2022-11-25T09:59:04;14.57;;;3.55;;
70073;SDS011;57445;51.058;3.698;2022-11-25T10:01:38;10.60;;;3.50;;
70073;SDS011;57445;51.058;3.698;2022-11-25T10:04:17;10.53;;;3.60;;
70073;SDS011;57445;51.058;3.698;2022-11-25T10:06:54;10.80;;;3.25;;
70073;SDS011;57445;51.058;3.698;2022-11-25T10:09:28;11.27;;;3.55;;
70073;SDS011;57445;51.058;3.698;2022-11-25T10:12:02;9.45;;;3.17;;
70073;SDS011;57445;51.058;3.698;2022-11-25T10:14:38;10.93;;;3.35;;
70073;SDS011;57445;51.058;3.698;2022-11-25T10:17:10;11.10;;;3.10;;
70073;SDS011;57445;51.058;3.698;2022-11-25T10:19:46;10.90;;;3.35;;
70073;SDS011;57445;51.058;3.698;2022-11-25T10:22:31;11.27;;;3.50;;
70073;SDS011;57445;51.058;3.698;2022-11-25T10:25:01;13.07;;;3.40;;
70073;SDS011;57445;51.058;3.698;2022-11-25T10:27:40;14.35;;;3.90;;
70073;SDS011;57445;51.058;3.698;2022-11-25T10:30:12;12.18;;;3.50;;
70073;SDS011;57445;51.058;3.698;2022-11-25T10:32:45;13.77;;;3.78;;
70073;SDS011;57445;51.058;3.698;2022-11-25T10:35:22;12.45;;;3.42;;
70073;SDS011;57445;51.058;3.698;2022-11-25T10:37:59;14.57;;;3.80;;
70073;SDS011;57445;51.058;3.698;2022-11-25T10:40:29;19.17;;;4.75;;
70073;SDS011;57445;51.058;3.698;2022-11-25T10:42:57;16.45;;;4.78;;
70073;SDS011;57445;51.058;3.698;2022-11-25T10:45:32;14.60;;;4.40;;
70073;SDS011;57445;51.058;3.698;2022-11-25T10:48:19;14.30;;;3.60;;
70073;SDS011;57445;51.058;3.698;2022-11-25T10:51:02;9.15;;;3.53;;
70073;SDS011;57445;51.058;3.698;2022-11-25T10:53:41;10.38;;;3.42;;
70073;SDS011;57445;51.058;3.698;2022-11-25T10:56:29;13.30;;;3.10;;
70073;SDS011;57445;51.058;3.698;2022-11-25T10:58:57;11.82;;;3.05;;
70073;SDS011;57445;51.058;3.698;2022-11-25T11:01:24;11.95;;;3.33;;
70073;SDS011;57445;51.058;3.698;2022-11-25T11:03:52;11.98;;;3.28;;
70073;SDS011;57445;51.058;3.698;2022-11-25T11:06:32;15.38;;;3.40;;
70073;SDS011;57445;51.058;3.698;2022-11-25T11:09:04;12.55;;;3.50;;
70073;SDS011;57445;51.058;3.698;2022-11-25T11:11:32;11.18;;;3.35;;
70073;SDS011;57445;51.058;3.698;2022-11-25T11:14:16;15.70;;;4.03;;
70073;SDS011;57445;51.058;3.698;2022-11-25T11:16:50;13.60;;;3.75;;
70073;SDS011;57445;51.058;3.698;2022-11-25T11:19:20;10.90;;;2.92;;
70073;SDS011;57445;51.058;3.698;2022-11-25T11:21:49;15.63;;;3.35;;
70073;SDS011;57445;51.058;3.698;2022-11-25T11:24:26;13.10;;;2.88;;
70073;SDS011;57445;51.058;3.698;2022-11-25T11:27:00;11.82;;;3.30;;
70073;SDS011;57445;51.058;3.698;2022-11-25T11:29:36;12.95;;;3.20;;
70073;SDS011;57445;51.058;3.698;2022-11-25T11:32:22;11.55;;;3.17;;
70073;SDS011;57445;51.058;3.698;2022-11-25T11:34:54;13.50;;;3.70;;
70073;SDS011;57445;51.058;3.698;2022-11-25T11:37:35;16.10;;;3.83;;
70073;SDS011;57445;51.058;3.698;2022-11-25T11:40:21;13.38;;;3.65;;
70073;SDS011;57445;51.058;3.698;2022-11-25T11:42:56;14.80;;;3.63;;
70073;SDS011;57445;51.058;3.698;2022-11-25T11:45:36;10.85;;;2.97;;
70073;SDS011;57445;51.058;3.698;2022-11-25T11:48:18;14.45;;;3.40;;
70073;SDS011;57445;51.058;3.698;2022-11-25T11:50:52;12.07;;;2.85;;
70073;SDS011;57445;51.058;3.698;2022-11-25T11:53:33;15.98;;;3.85;;
70073;SDS011;57445;51.058;3.698;2022-11-25T11:56:12;11.30;;;3.22;;
70073;SDS011;57445;51.058;3.698;2022-11-25T11:59:05;11.52;;;3.22;;
70073;SDS011;57445;51.058;3.698;2022-11-25T12:02:03;20.70;;;4.32;;
70073;SDS011;57445;51.058;3.698;2022-11-25T12:04:50;17.45;;;3.58;;
70073;SDS011;57445;51.058;3.698;2022-11-25T12:07:23;16.35;;;4.07;;
70073;SDS011;57445;51.058;3.698;2022-11-25T12:12:34;12.07;;;3.10;;
70073;SDS011;57445;51.058;3.698;2022-11-25T12:15:06;14.02;;;3.50;;
70073;SDS011;57445;51.058;3.698;2022-11-25T12:17:43;16.85;;;4.22;;
70073;SDS011;57445;51.058;3.698;2022-11-25T12:20:16;11.00;;;3.47;;
70073;SDS011;57445;51.058;3.698;2022-11-25T12:22:48;14.73;;;3.47;;
70073;SDS011;57445;51.058;3.698;2022-11-25T12:25:23;17.90;;;3.85;;
70073;SDS011;57445;51.058;3.698;2022-11-25T12:27:59;23.52;;;4.38;;
70073;SDS011;57445;51.058;3.698;2022-11-25T12:30:33;13.63;;;3.17;;
70073;SDS011;57445;51.058;3.698;2022-11-25T12:33:11;15.48;;;4.65;;
70073;SDS011;57445;51.058;3.698;2022-11-25T12:35:48;18.50;;;4.22;;
70073;SDS011;57445;51.058;3.698;2022-11-25T12:38:29;17.02;;;4.03;;
70073;SDS011;57445;51.058;3.698;2022-11-25T12:41:04;14.93;;;3.73;;
70073;SDS011;57445;51.058;3.698;2022-11-25T12:43:46;15.93;;;3.50;;
70073;SDS011;57445;51.058;3.698;2022-11-25T12:46:23;15.48;;;3.50;;
70073;SDS011;57445;51.058;3.698;2022-11-25T12:48:55;21.83;;;4.15;;
70073;SDS011;57445;51.058;3.698;2022-11-25T12:51:38;13.95;;;3.42;;
70073;SDS011;57445;51.058;3.698;2022-11-25T12:54:16;16.20;;;3.63;;
70073;SDS011;57445;51.058;3.698;2022-11-25T12:57:17;16.42;;;3.97;;
70073;SDS011;57445;51.058;3.698;2022-11-25T13:00:10;18.48;;;3.45;;
70073;SDS011;57445;51.058;3.698;2022-11-25T13:02:52;14.30;;;3.75;;
70073;SDS011;57445;51.058;3.698;2022-11-25T13:06:04;19.90;;;4.27;;
70073;SDS011;57445;51.058;3.698;2022-11-25T13:08:53;15.23;;;3.70;;
70073;SDS011;57445;51.058;3.698;2022-11-25T13:11:46;17.77;;;3.63;;
70073;SDS011;57445;51.058;3.698;2022-11-25T13:14:32;16.02;;;4.28;;
70073;SDS011;57445;51.058;3.698;2022-11-25T13:17:21;14.30;;;3.70;;
70073;SDS011;57445;51.058;3.698;2022-11-25T13:19:58;14.55;;;3.97;;
70073;SDS011;57445;51.058;3.698;2022-11-25T13:23:18;19.88;;;4.07;;
70073;SDS011;57445;51.058;3.698;2022-11-25T13:29:51;16.60;;;4.55;;
70073;SDS011;57445;51.058;3.698;2022-11-25T13:32:26;16.25;;;4.47;;
70073;SDS011;57445;51.058;3.698;2022-11-25T13:38:07;17.00;;;4.13;;
70073;SDS011;57445;51.058;3.698;2022-11-25T13:41:23;18.42;;;4.03;;
70073;SDS011;57445;51.058;3.698;2022-11-25T13:44:02;13.07;;;4.20;;
70073;SDS011;57445;51.058;3.698;2022-11-25T13:46:37;19.60;;;3.80;;
70073;SDS011;57445;51.058;3.698;2022-11-25T13:49:20;13.30;;;3.58;;
70073;SDS011;57445;51.058;3.698;2022-11-25T13:51:55;13.55;;;3.88;;
70073;SDS011;57445;51.058;3.698;2022-11-25T13:54:26;20.30;;;4.30;;
70073;SDS011;57445;51.058;3.698;2022-11-25T13:57:13;13.85;;;3.55;;
70073;SDS011;57445;51.058;3.698;2022-11-25T13:59:52;17.25;;;4.07;;
70073;SDS011;57445;51.058;3.698;2022-11-25T14:02:33;17.80;;;4.18;;
70073;SDS011;57445;51.058;3.698;2022-11-25T14:08:28;14.63;;;4.40;;
70073;SDS011;57445;51.058;3.698;2022-11-25T14:11:13;13.15;;;3.70;;
70073;SDS011;57445;51.058;3.698;2022-11-25T14:14:12;18.85;;;4.22;;
70073;SDS011;57445;51.058;3.698;2022-11-25T14:16:58;17.92;;;4.10;;
70073;SDS011;57445;51.058;3.698;2022-11-25T14:22:41;21.85;;;4.28;;
70073;SDS011;57445;51.058;3.698;2022-11-25T14:25:41;10.73;;;3.33;;
70073;SDS011;57445;51.058;3.698;2022-11-25T14:28:21;22.15;;;4.25;;
70073;SDS011;57445;51.058;3.698;2022-11-25T14:30:55;13.50;;;4.07;;
70073;SDS011;57445;51.058;3.698;2022-11-25T14:33:28;13.65;;;3.80;;
70073;SDS011;57445;51.058;3.698;2022-11-25T14:36:00;17.35;;;3.92;;
70073;SDS011;57445;51.058;3.698;2022-11-25T14:41:12;15.23;;;3.38;;
70073;SDS011;57445;51.058;3.698;2022-11-25T14:43:45;15.10;;;3.70;;
70073;SDS011;57445;51.058;3.698;2022-11-25T14:46:21;19.17;;;3.10;;
70073;SDS011;57445;51.058;3.698;2022-11-25T14:48:55;14.10;;;3.33;;
70073;SDS011;57445;51.058;3.698;2022-11-25T14:51:32;16.67;;;3.35;;
70073;SDS011;57445;51.058;3.698;2022-11-25T14:54:01;11.57;;;3.17;;
70073;SDS011;57445;51.058;3.698;2022-11-25T14:56:34;12.02;;;2.90;;
70073;SDS011;57445;51.058;3.698;2022-11-25T14:59:03;16.88;;;3.35;;
70073;SDS011;57445;51.058;3.698;2022-11-25T15:01:35;13.75;;;3.45;;
70073;SDS011;57445;51.058;3.698;2022-11-25T15:04:06;14.05;;;3.40;;
70073;SDS011;57445;51.058;3.698;2022-11-25T15:06:46;15.10;;;2.88;;
70073;SDS011;57445;51.058;3.698;2022-11-25T15:09:20;16.77;;;3.15;;
70073;SDS011;57445;51.058;3.698;2022-11-25T15:11:56;11.70;;;2.88;;
70073;SDS011;57445;51.058;3.698;2022-11-25T15:14:27;10.18;;;2.92;;
70073;SDS011;57445;51.058;3.698;2022-11-25T15:17:05;16.48;;;3.70;;
70073;SDS011;57445;51.058;3.698;2022-11-25T15:19:34;10.63;;;2.90;;
70073;SDS011;57445;51.058;3.698;2022-11-25T15:22:03;16.27;;;3.40;;
70073;SDS011;57445;51.058;3.698;2022-11-25T15:24:40;15.30;;;3.60;;
70073;SDS011;57445;51.058;3.698;2022-11-25T15:29:40;15.85;;;3.30;;
70073;SDS011;57445;51.058;3.698;2022-11-25T15:32:09;15.80;;;3.00;;
70073;SDS011;57445;51.058;3.698;2022-11-25T15:34:42;19.17;;;3.67;;
70073;SDS011;57445;51.058;3.698;2022-11-25T15:37:15;16.88;;;3.72;;
70073;SDS011;57445;51.058;3.698;2022-11-25T15:39:48;15.80;;;3.80;;
70073;SDS011;57445;51.058;3.698;2022-11-25T15:42:23;14.05;;;3.90;;
70073;SDS011;57445;51.058;3.698;2022-11-25T15:44:53;18.42;;;3.92;;
70073;SDS011;57445;51.058;3.698;2022-11-25T15:47:24;20.55;;;4.15;;
70073;SDS011;57445;51.058;3.698;2022-11-25T15:49:55;19.90;;;4.50;;
70073;SDS011;57445;51.058;3.698;2022-11-25T15:52:30;15.00;;;4.25;;